sensor_id;sensor_type;location;lat;lon;timestamp;P1;durP1;ratioP1;P2;durP2;ratioP2
22034;SDS011;11181;51.002;4.356;2023-07-31T00:00:51;12.80;;;4.10;;
22034;SDS011;11181;51.002;4.356;2023-07-31T00:03:20;11.87;;;3.53;;
22034;SDS011;11181;51.002;4.356;2023-07-31T00:05:46;11.87;;;4.37;;
22034;SDS011;11181;51.002;4.356;2023-07-31T00:08:13;7.17;;;3.80;;
22034;SDS011;11181;51.002;4.356;2023-07-31T00:10:40;13.20;;;4.97;;
22034;SDS011;11181;51.002;4.356;2023-07-31T00:13:07;11.33;;;4.60;;
22034;SDS011;11181;51.002;4.356;2023-07-31T00:15:34;9.07;;;3.83;;
22034;SDS011;11181;51.002;4.356;2023-07-31T00:18:01;14.73;;;4.20;;
22034;SDS011;11181;51.002;4.356;2023-07-31T00:20:29;12.70;;;4.07;;
22034;SDS011;11181;51.002;4.356;2023-07-31T00:22:56;11.97;;;4.10;;
22034;SDS011;11181;51.002;4.356;2023-07-31T00:25:22;18.13;;;5.10;;
22034;SDS011;11181;51.002;4.356;2023-07-31T00:27:49;20.57;;;5.93;;
22034;SDS011;11181;51.002;4.356;2023-07-31T00:30:16;10.70;;;3.93;;
22034;SDS011;11181;51.002;4.356;2023-07-31T00:32:43;10.70;;;4.37;;
22034;SDS011;11181;51.002;4.356;2023-07-31T00:35:10;11.23;;;4.40;;
22034;SDS011;11181;51.002;4.356;2023-07-31T00:37:38;11.27;;;4.67;;
22034;SDS011;11181;51.002;4.356;2023-07-31T00:40:06;15.17;;;4.03;;
22034;SDS011;11181;51.002;4.356;2023-07-31T00:42:33;12.57;;;4.37;;
22034;SDS011;11181;51.002;4.356;2023-07-31T00:45:00;12.57;;;3.90;;
22034;SDS011;11181;51.002;4.356;2023-07-31T00:47:27;10.90;;;4.07;;
22034;SDS011;11181;51.002;4.356;2023-07-31T00:49:54;16.50;;;5.43;;
22034;SDS011;11181;51.002;4.356;2023-07-31T00:52:21;12.67;;;4.40;;
22034;SDS011;11181;51.002;4.356;2023-07-31T00:54:50;13.33;;;4.70;;
22034;SDS011;11181;51.002;4.356;2023-07-31T00:57:17;16.67;;;5.37;;
22034;SDS011;11181;51.002;4.356;2023-07-31T00:59:43;11.27;;;4.53;;
22034;SDS011;11181;51.002;4.356;2023-07-31T01:02:11;12.67;;;4.20;;
22034;SDS011;11181;51.002;4.356;2023-07-31T01:04:38;13.57;;;4.50;;
22034;SDS011;11181;51.002;4.356;2023-07-31T01:07:07;9.20;;;3.80;;
22034;SDS011;11181;51.002;4.356;2023-07-31T01:09:40;10.63;;;4.17;;
22034;SDS011;11181;51.002;4.356;2023-07-31T01:12:14;9.87;;;3.80;;
22034;SDS011;11181;51.002;4.356;2023-07-31T01:14:50;16.70;;;4.70;;
22034;SDS011;11181;51.002;4.356;2023-07-31T01:17:17;12.27;;;3.87;;
22034;SDS011;11181;51.002;4.356;2023-07-31T01:19:44;10.53;;;4.20;;
22034;SDS011;11181;51.002;4.356;2023-07-31T01:22:30;11.90;;;3.90;;
22034;SDS011;11181;51.002;4.356;2023-07-31T01:25:13;12.60;;;4.77;;
22034;SDS011;11181;51.002;4.356;2023-07-31T01:27:58;7.20;;;4.03;;
22034;SDS011;11181;51.002;4.356;2023-07-31T01:30:28;14.93;;;4.73;;
22034;SDS011;11181;51.002;4.356;2023-07-31T01:33:00;13.73;;;3.93;;
22034;SDS011;11181;51.002;4.356;2023-07-31T01:35:31;12.10;;;4.13;;
22034;SDS011;11181;51.002;4.356;2023-07-31T01:37:58;10.17;;;4.10;;
22034;SDS011;11181;51.002;4.356;2023-07-31T01:40:25;11.77;;;4.50;;
22034;SDS011;11181;51.002;4.356;2023-07-31T01:42:52;13.33;;;4.43;;
22034;SDS011;11181;51.002;4.356;2023-07-31T01:45:20;12.67;;;4.07;;
22034;SDS011;11181;51.002;4.356;2023-07-31T01:47:47;19.00;;;4.13;;
22034;SDS011;11181;51.002;4.356;2023-07-31T01:50:14;11.10;;;4.17;;
22034;SDS011;11181;51.002;4.356;2023-07-31T01:52:41;14.70;;;4.63;;
22034;SDS011;11181;51.002;4.356;2023-07-31T01:55:08;12.30;;;4.80;;
22034;SDS011;11181;51.002;4.356;2023-07-31T01:57:36;12.77;;;3.77;;
22034;SDS011;11181;51.002;4.356;2023-07-31T02:00:03;16.17;;;4.33;;
22034;SDS011;11181;51.002;4.356;2023-07-31T02:02:32;11.87;;;3.97;;
22034;SDS011;11181;51.002;4.356;2023-07-31T02:04:59;9.33;;;4.10;;
22034;SDS011;11181;51.002;4.356;2023-07-31T02:07:26;10.90;;;4.33;;
22034;SDS011;11181;51.002;4.356;2023-07-31T02:09:53;12.63;;;4.20;;
22034;SDS011;11181;51.002;4.356;2023-07-31T02:12:20;12.03;;;4.10;;
22034;SDS011;11181;51.002;4.356;2023-07-31T02:14:47;14.10;;;3.63;;
22034;SDS011;11181;51.002;4.356;2023-07-31T02:17:14;10.97;;;4.20;;
22034;SDS011;11181;51.002;4.356;2023-07-31T02:19:42;9.87;;;3.30;;
22034;SDS011;11181;51.002;4.356;2023-07-31T02:22:09;10.63;;;3.53;;
22034;SDS011;11181;51.002;4.356;2023-07-31T02:24:36;11.07;;;4.00;;
22034;SDS011;11181;51.002;4.356;2023-07-31T02:27:03;11.60;;;4.10;;
22034;SDS011;11181;51.002;4.356;2023-07-31T02:29:30;12.57;;;3.73;;
22034;SDS011;11181;51.002;4.356;2023-07-31T02:31:57;11.27;;;4.03;;
22034;SDS011;11181;51.002;4.356;2023-07-31T02:34:23;12.30;;;4.33;;
22034;SDS011;11181;51.002;4.356;2023-07-31T02:36:52;8.73;;;4.13;;
22034;SDS011;11181;51.002;4.356;2023-07-31T02:39:18;11.03;;;3.87;;
22034;SDS011;11181;51.002;4.356;2023-07-31T02:41:46;10.67;;;4.23;;
22034;SDS011;11181;51.002;4.356;2023-07-31T02:44:13;10.37;;;3.80;;
22034;SDS011;11181;51.002;4.356;2023-07-31T02:46:40;10.30;;;3.90;;
22034;SDS011;11181;51.002;4.356;2023-07-31T02:49:06;14.00;;;4.47;;
22034;SDS011;11181;51.002;4.356;2023-07-31T02:51:33;11.60;;;3.87;;
22034;SDS011;11181;51.002;4.356;2023-07-31T02:54:01;13.27;;;4.90;;
22034;SDS011;11181;51.002;4.356;2023-07-31T02:56:28;11.87;;;4.37;;
22034;SDS011;11181;51.002;4.356;2023-07-31T02:58:55;8.00;;;4.07;;
22034;SDS011;11181;51.002;4.356;2023-07-31T03:01:22;11.43;;;3.93;;
22034;SDS011;11181;51.002;4.356;2023-07-31T03:03:49;8.53;;;4.87;;
22034;SDS011;11181;51.002;4.356;2023-07-31T03:06:16;9.07;;;3.87;;
22034;SDS011;11181;51.002;4.356;2023-07-31T03:08:42;7.77;;;3.87;;
22034;SDS011;11181;51.002;4.356;2023-07-31T03:11:11;8.33;;;4.53;;
22034;SDS011;11181;51.002;4.356;2023-07-31T03:13:37;8.10;;;3.90;;
22034;SDS011;11181;51.002;4.356;2023-07-31T03:16:04;13.57;;;5.07;;
22034;SDS011;11181;51.002;4.356;2023-07-31T03:18:31;9.60;;;4.70;;
22034;SDS011;11181;51.002;4.356;2023-07-31T03:20:58;9.17;;;3.73;;
22034;SDS011;11181;51.002;4.356;2023-07-31T03:23:25;4.73;;;4.00;;
22034;SDS011;11181;51.002;4.356;2023-07-31T03:25:55;8.33;;;4.30;;
22034;SDS011;11181;51.002;4.356;2023-07-31T03:28:25;10.77;;;4.43;;
22034;SDS011;11181;51.002;4.356;2023-07-31T03:30:52;6.20;;;3.63;;
22034;SDS011;11181;51.002;4.356;2023-07-31T03:33:19;8.17;;;4.37;;
22034;SDS011;11181;51.002;4.356;2023-07-31T03:35:46;8.83;;;3.93;;
22034;SDS011;11181;51.002;4.356;2023-07-31T03:38:13;8.40;;;4.20;;
22034;SDS011;11181;51.002;4.356;2023-07-31T03:40:40;7.93;;;3.20;;
22034;SDS011;11181;51.002;4.356;2023-07-31T03:43:07;6.20;;;3.50;;
22034;SDS011;11181;51.002;4.356;2023-07-31T03:45:35;5.13;;;3.20;;
22034;SDS011;11181;51.002;4.356;2023-07-31T03:48:02;7.10;;;3.97;;
22034;SDS011;11181;51.002;4.356;2023-07-31T03:50:29;8.33;;;4.17;;
22034;SDS011;11181;51.002;4.356;2023-07-31T03:52:56;9.27;;;3.30;;
22034;SDS011;11181;51.002;4.356;2023-07-31T03:55:23;7.67;;;3.47;;
22034;SDS011;11181;51.002;4.356;2023-07-31T03:57:50;8.50;;;3.37;;
22034;SDS011;11181;51.002;4.356;2023-07-31T04:00:17;7.47;;;3.90;;
22034;SDS011;11181;51.002;4.356;2023-07-31T04:02:45;6.03;;;3.30;;
22034;SDS011;11181;51.002;4.356;2023-07-31T04:05:12;6.13;;;3.17;;
22034;SDS011;11181;51.002;4.356;2023-07-31T04:07:39;6.57;;;3.00;;
22034;SDS011;11181;51.002;4.356;2023-07-31T04:10:06;6.20;;;3.33;;
22034;SDS011;11181;51.002;4.356;2023-07-31T04:12:33;5.30;;;3.50;;
22034;SDS011;11181;51.002;4.356;2023-07-31T04:15:00;7.20;;;3.50;;
22034;SDS011;11181;51.002;4.356;2023-07-31T04:17:27;4.47;;;3.10;;
22034;SDS011;11181;51.002;4.356;2023-07-31T04:19:55;6.43;;;3.63;;
22034;SDS011;11181;51.002;4.356;2023-07-31T04:22:22;5.13;;;2.90;;
22034;SDS011;11181;51.002;4.356;2023-07-31T04:24:49;4.47;;;3.20;;
22034;SDS011;11181;51.002;4.356;2023-07-31T04:27:15;5.20;;;2.93;;
22034;SDS011;11181;51.002;4.356;2023-07-31T04:29:42;5.40;;;3.40;;
22034;SDS011;11181;51.002;4.356;2023-07-31T04:32:11;3.97;;;2.80;;
22034;SDS011;11181;51.002;4.356;2023-07-31T04:34:38;4.37;;;3.30;;
22034;SDS011;11181;51.002;4.356;2023-07-31T04:37:06;6.13;;;3.30;;
22034;SDS011;11181;51.002;4.356;2023-07-31T04:39:33;6.90;;;3.40;;
22034;SDS011;11181;51.002;4.356;2023-07-31T04:42:00;8.80;;;4.73;;
22034;SDS011;11181;51.002;4.356;2023-07-31T04:44:26;7.07;;;3.47;;
22034;SDS011;11181;51.002;4.356;2023-07-31T04:46:53;6.57;;;3.23;;
22034;SDS011;11181;51.002;4.356;2023-07-31T04:49:20;5.73;;;3.87;;
22034;SDS011;11181;51.002;4.356;2023-07-31T04:51:47;6.13;;;3.53;;
22034;SDS011;11181;51.002;4.356;2023-07-31T04:54:15;5.87;;;3.67;;
22034;SDS011;11181;51.002;4.356;2023-07-31T04:56:42;6.60;;;3.77;;
22034;SDS011;11181;51.002;4.356;2023-07-31T04:59:09;6.37;;;3.70;;
22034;SDS011;11181;51.002;4.356;2023-07-31T05:01:36;6.87;;;3.40;;
22034;SDS011;11181;51.002;4.356;2023-07-31T05:04:03;7.53;;;3.90;;
22034;SDS011;11181;51.002;4.356;2023-07-31T05:06:29;7.80;;;3.53;;
22034;SDS011;11181;51.002;4.356;2023-07-31T05:08:56;6.27;;;3.20;;
22034;SDS011;11181;51.002;4.356;2023-07-31T05:11:24;6.30;;;3.67;;
22034;SDS011;11181;51.002;4.356;2023-07-31T05:13:51;5.93;;;3.30;;
22034;SDS011;11181;51.002;4.356;2023-07-31T05:16:18;5.90;;;3.47;;
22034;SDS011;11181;51.002;4.356;2023-07-31T05:18:45;5.23;;;4.00;;
22034;SDS011;11181;51.002;4.356;2023-07-31T05:21:12;5.73;;;3.77;;
22034;SDS011;11181;51.002;4.356;2023-07-31T05:23:39;4.63;;;3.07;;
22034;SDS011;11181;51.002;4.356;2023-07-31T05:26:06;6.83;;;3.63;;
22034;SDS011;11181;51.002;4.356;2023-07-31T05:28:36;5.47;;;3.47;;
22034;SDS011;11181;51.002;4.356;2023-07-31T05:31:03;5.40;;;3.63;;
22034;SDS011;11181;51.002;4.356;2023-07-31T05:33:31;8.27;;;3.53;;
22034;SDS011;11181;51.002;4.356;2023-07-31T05:35:58;4.63;;;3.53;;
22034;SDS011;11181;51.002;4.356;2023-07-31T05:38:25;4.90;;;3.37;;
22034;SDS011;11181;51.002;4.356;2023-07-31T05:40:52;7.27;;;3.90;;
22034;SDS011;11181;51.002;4.356;2023-07-31T05:43:19;8.63;;;3.80;;
22034;SDS011;11181;51.002;4.356;2023-07-31T05:45:47;8.90;;;4.23;;
22034;SDS011;11181;51.002;4.356;2023-07-31T05:48:14;8.97;;;3.93;;
22034;SDS011;11181;51.002;4.356;2023-07-31T05:50:41;6.90;;;3.83;;
22034;SDS011;11181;51.002;4.356;2023-07-31T05:53:09;9.70;;;3.60;;
22034;SDS011;11181;51.002;4.356;2023-07-31T05:55:36;6.57;;;3.43;;
22034;SDS011;11181;51.002;4.356;2023-07-31T05:58:03;8.57;;;3.60;;
22034;SDS011;11181;51.002;4.356;2023-07-31T06:00:30;6.03;;;3.47;;
22034;SDS011;11181;51.002;4.356;2023-07-31T06:02:58;5.70;;;4.07;;
22034;SDS011;11181;51.002;4.356;2023-07-31T06:05:25;7.40;;;3.90;;
22034;SDS011;11181;51.002;4.356;2023-07-31T06:07:53;5.70;;;3.67;;
22034;SDS011;11181;51.002;4.356;2023-07-31T06:10:20;7.77;;;4.10;;
22034;SDS011;11181;51.002;4.356;2023-07-31T06:12:47;6.63;;;3.20;;
22034;SDS011;11181;51.002;4.356;2023-07-31T06:15:14;5.73;;;3.33;;
22034;SDS011;11181;51.002;4.356;2023-07-31T06:17:41;4.10;;;2.87;;
22034;SDS011;11181;51.002;4.356;2023-07-31T06:20:10;7.73;;;3.37;;
22034;SDS011;11181;51.002;4.356;2023-07-31T06:22:37;4.33;;;3.00;;
22034;SDS011;11181;51.002;4.356;2023-07-31T06:25:04;7.53;;;3.03;;
22034;SDS011;11181;51.002;4.356;2023-07-31T06:27:31;10.27;;;3.37;;
22034;SDS011;11181;51.002;4.356;2023-07-31T06:29:58;5.73;;;3.33;;
22034;SDS011;11181;51.002;4.356;2023-07-31T06:32:25;6.40;;;3.00;;
22034;SDS011;11181;51.002;4.356;2023-07-31T06:34:52;9.20;;;3.50;;
22034;SDS011;11181;51.002;4.356;2023-07-31T06:37:21;8.33;;;3.70;;
22034;SDS011;11181;51.002;4.356;2023-07-31T06:39:47;5.57;;;3.03;;
22034;SDS011;11181;51.002;4.356;2023-07-31T06:42:14;7.97;;;3.60;;
22034;SDS011;11181;51.002;4.356;2023-07-31T06:44:41;8.90;;;3.17;;
22034;SDS011;11181;51.002;4.356;2023-07-31T06:47:08;6.17;;;2.90;;
22034;SDS011;11181;51.002;4.356;2023-07-31T06:49:35;7.50;;;3.03;;
22034;SDS011;11181;51.002;4.356;2023-07-31T06:52:02;8.77;;;4.03;;
22034;SDS011;11181;51.002;4.356;2023-07-31T06:54:31;8.30;;;3.50;;
22034;SDS011;11181;51.002;4.356;2023-07-31T06:56:58;5.40;;;3.20;;
22034;SDS011;11181;51.002;4.356;2023-07-31T06:59:25;5.20;;;2.73;;
22034;SDS011;11181;51.002;4.356;2023-07-31T07:01:52;5.40;;;2.93;;
22034;SDS011;11181;51.002;4.356;2023-07-31T07:04:19;11.67;;;3.73;;
22034;SDS011;11181;51.002;4.356;2023-07-31T07:06:46;4.60;;;3.03;;
22034;SDS011;11181;51.002;4.356;2023-07-31T07:09:12;5.50;;;2.70;;
22034;SDS011;11181;51.002;4.356;2023-07-31T07:11:41;5.87;;;2.83;;
22034;SDS011;11181;51.002;4.356;2023-07-31T07:14:08;9.20;;;3.10;;
22034;SDS011;11181;51.002;4.356;2023-07-31T07:16:35;11.27;;;3.23;;
22034;SDS011;11181;51.002;4.356;2023-07-31T07:19:02;7.30;;;2.73;;
22034;SDS011;11181;51.002;4.356;2023-07-31T07:21:29;5.40;;;2.90;;
22034;SDS011;11181;51.002;4.356;2023-07-31T07:23:56;7.23;;;2.77;;
22034;SDS011;11181;51.002;4.356;2023-07-31T07:26:23;5.10;;;3.20;;
22034;SDS011;11181;51.002;4.356;2023-07-31T07:28:51;6.33;;;3.10;;
22034;SDS011;11181;51.002;4.356;2023-07-31T07:31:18;7.13;;;3.27;;
22034;SDS011;11181;51.002;4.356;2023-07-31T07:33:45;5.83;;;3.07;;
22034;SDS011;11181;51.002;4.356;2023-07-31T07:36:12;6.13;;;2.67;;
22034;SDS011;11181;51.002;4.356;2023-07-31T07:38:39;6.00;;;3.10;;
22034;SDS011;11181;51.002;4.356;2023-07-31T07:41:06;6.93;;;3.30;;
22034;SDS011;11181;51.002;4.356;2023-07-31T07:43:33;6.60;;;2.90;;
22034;SDS011;11181;51.002;4.356;2023-07-31T07:46:01;10.30;;;3.50;;
22034;SDS011;11181;51.002;4.356;2023-07-31T07:48:28;4.73;;;2.83;;
22034;SDS011;11181;51.002;4.356;2023-07-31T07:50:55;5.03;;;2.90;;
22034;SDS011;11181;51.002;4.356;2023-07-31T07:53:22;4.83;;;3.00;;
22034;SDS011;11181;51.002;4.356;2023-07-31T07:55:49;9.23;;;3.53;;
22034;SDS011;11181;51.002;4.356;2023-07-31T07:58:15;7.33;;;2.53;;
22034;SDS011;11181;51.002;4.356;2023-07-31T08:00:48;6.87;;;3.27;;
22034;SDS011;11181;51.002;4.356;2023-07-31T08:03:16;5.63;;;3.13;;
22034;SDS011;11181;51.002;4.356;2023-07-31T08:05:43;7.60;;;2.83;;
22034;SDS011;11181;51.002;4.356;2023-07-31T08:08:13;5.87;;;3.13;;
22034;SDS011;11181;51.002;4.356;2023-07-31T08:10:41;8.57;;;3.37;;
22034;SDS011;11181;51.002;4.356;2023-07-31T08:13:09;5.40;;;2.67;;
22034;SDS011;11181;51.002;4.356;2023-07-31T08:15:37;6.23;;;3.17;;
22034;SDS011;11181;51.002;4.356;2023-07-31T08:18:04;3.73;;;2.57;;
22034;SDS011;11181;51.002;4.356;2023-07-31T08:20:32;6.50;;;3.27;;
22034;SDS011;11181;51.002;4.356;2023-07-31T08:22:59;4.07;;;2.47;;
22034;SDS011;11181;51.002;4.356;2023-07-31T08:25:26;3.40;;;2.67;;
22034;SDS011;11181;51.002;4.356;2023-07-31T08:27:53;6.97;;;2.70;;
22034;SDS011;11181;51.002;4.356;2023-07-31T08:30:20;5.17;;;2.63;;
22034;SDS011;11181;51.002;4.356;2023-07-31T08:32:48;4.33;;;2.50;;
22034;SDS011;11181;51.002;4.356;2023-07-31T08:35:15;3.00;;;2.40;;
22034;SDS011;11181;51.002;4.356;2023-07-31T08:37:43;4.80;;;2.43;;
22034;SDS011;11181;51.002;4.356;2023-07-31T08:40:10;4.70;;;2.50;;
22034;SDS011;11181;51.002;4.356;2023-07-31T08:42:43;4.97;;;2.73;;
22034;SDS011;11181;51.002;4.356;2023-07-31T08:45:12;6.63;;;2.90;;
22034;SDS011;11181;51.002;4.356;2023-07-31T08:47:41;6.30;;;2.77;;
22034;SDS011;11181;51.002;4.356;2023-07-31T08:50:09;6.27;;;2.67;;
22034;SDS011;11181;51.002;4.356;2023-07-31T08:52:36;6.20;;;3.83;;
22034;SDS011;11181;51.002;4.356;2023-07-31T08:55:05;3.60;;;2.33;;
22034;SDS011;11181;51.002;4.356;2023-07-31T08:57:33;7.40;;;2.77;;
22034;SDS011;11181;51.002;4.356;2023-07-31T09:00:02;5.10;;;2.70;;
22034;SDS011;11181;51.002;4.356;2023-07-31T09:02:31;6.73;;;3.17;;
22034;SDS011;11181;51.002;4.356;2023-07-31T09:05:03;6.23;;;2.90;;
22034;SDS011;11181;51.002;4.356;2023-07-31T09:07:32;6.27;;;2.60;;
22034;SDS011;11181;51.002;4.356;2023-07-31T09:10:00;4.13;;;2.77;;
22034;SDS011;11181;51.002;4.356;2023-07-31T09:12:29;6.77;;;2.80;;
22034;SDS011;11181;51.002;4.356;2023-07-31T09:14:56;6.03;;;2.80;;
22034;SDS011;11181;51.002;4.356;2023-07-31T09:17:29;8.07;;;3.43;;
22034;SDS011;11181;51.002;4.356;2023-07-31T09:19:57;4.40;;;2.80;;
22034;SDS011;11181;51.002;4.356;2023-07-31T09:22:34;5.50;;;2.50;;
22034;SDS011;11181;51.002;4.356;2023-07-31T09:25:13;3.90;;;2.40;;
22034;SDS011;11181;51.002;4.356;2023-07-31T09:27:49;5.80;;;3.40;;
22034;SDS011;11181;51.002;4.356;2023-07-31T09:30:18;7.13;;;3.17;;
22034;SDS011;11181;51.002;4.356;2023-07-31T09:32:45;5.87;;;3.00;;
22034;SDS011;11181;51.002;4.356;2023-07-31T09:35:13;6.33;;;2.80;;
22034;SDS011;11181;51.002;4.356;2023-07-31T09:37:47;6.00;;;2.87;;
22034;SDS011;11181;51.002;4.356;2023-07-31T09:40:24;6.57;;;2.97;;
22034;SDS011;11181;51.002;4.356;2023-07-31T09:42:53;6.50;;;2.73;;
22034;SDS011;11181;51.002;4.356;2023-07-31T09:45:23;4.57;;;2.87;;
22034;SDS011;11181;51.002;4.356;2023-07-31T09:47:50;4.27;;;2.63;;
22034;SDS011;11181;51.002;4.356;2023-07-31T09:50:17;4.07;;;2.77;;
22034;SDS011;11181;51.002;4.356;2023-07-31T09:52:45;2.90;;;2.43;;
22034;SDS011;11181;51.002;4.356;2023-07-31T09:55:12;6.37;;;2.30;;
22034;SDS011;11181;51.002;4.356;2023-07-31T09:57:40;3.47;;;2.80;;
22034;SDS011;11181;51.002;4.356;2023-07-31T10:00:10;6.07;;;3.03;;
22034;SDS011;11181;51.002;4.356;2023-07-31T10:02:38;3.77;;;2.10;;
22034;SDS011;11181;51.002;4.356;2023-07-31T10:05:06;3.60;;;2.40;;
22034;SDS011;11181;51.002;4.356;2023-07-31T10:07:34;5.50;;;2.67;;
22034;SDS011;11181;51.002;4.356;2023-07-31T10:10:04;6.03;;;2.67;;
22034;SDS011;11181;51.002;4.356;2023-07-31T10:12:34;7.30;;;3.87;;
22034;SDS011;11181;51.002;4.356;2023-07-31T10:15:02;4.97;;;2.50;;
22034;SDS011;11181;51.002;4.356;2023-07-31T10:17:31;6.07;;;3.60;;
22034;SDS011;11181;51.002;4.356;2023-07-31T10:19:59;4.80;;;3.20;;
22034;SDS011;11181;51.002;4.356;2023-07-31T10:22:30;4.97;;;3.00;;
22034;SDS011;11181;51.002;4.356;2023-07-31T10:24:57;3.50;;;3.03;;
22034;SDS011;11181;51.002;4.356;2023-07-31T10:27:25;6.20;;;3.20;;
22034;SDS011;11181;51.002;4.356;2023-07-31T10:29:52;6.30;;;3.50;;
22034;SDS011;11181;51.002;4.356;2023-07-31T10:32:21;7.67;;;3.57;;
22034;SDS011;11181;51.002;4.356;2023-07-31T10:34:50;7.27;;;3.27;;
22034;SDS011;11181;51.002;4.356;2023-07-31T10:37:24;5.77;;;3.50;;
22034;SDS011;11181;51.002;4.356;2023-07-31T10:39:57;6.63;;;3.20;;
22034;SDS011;11181;51.002;4.356;2023-07-31T10:42:31;6.30;;;3.50;;
22034;SDS011;11181;51.002;4.356;2023-07-31T10:45:00;5.60;;;3.20;;
22034;SDS011;11181;51.002;4.356;2023-07-31T10:47:29;9.40;;;3.27;;
22034;SDS011;11181;51.002;4.356;2023-07-31T10:50:13;8.13;;;3.50;;
22034;SDS011;11181;51.002;4.356;2023-07-31T10:52:44;7.07;;;3.93;;
22034;SDS011;11181;51.002;4.356;2023-07-31T10:55:23;6.90;;;4.27;;
22034;SDS011;11181;51.002;4.356;2023-07-31T10:57:54;6.70;;;3.53;;
22034;SDS011;11181;51.002;4.356;2023-07-31T11:00:22;12.17;;;5.13;;
22034;SDS011;11181;51.002;4.356;2023-07-31T11:02:58;10.20;;;4.30;;
22034;SDS011;11181;51.002;4.356;2023-07-31T11:08:29;8.10;;;3.83;;
22034;SDS011;11181;51.002;4.356;2023-07-31T11:11:05;6.47;;;3.83;;
22034;SDS011;11181;51.002;4.356;2023-07-31T11:13:39;6.90;;;3.63;;
22034;SDS011;11181;51.002;4.356;2023-07-31T11:16:07;6.40;;;3.47;;
22034;SDS011;11181;51.002;4.356;2023-07-31T11:18:34;7.13;;;3.70;;
22034;SDS011;11181;51.002;4.356;2023-07-31T11:21:03;7.67;;;3.83;;
22034;SDS011;11181;51.002;4.356;2023-07-31T11:23:30;10.50;;;4.23;;
22034;SDS011;11181;51.002;4.356;2023-07-31T11:25:58;6.57;;;3.90;;
22034;SDS011;11181;51.002;4.356;2023-07-31T11:28:30;7.87;;;3.67;;
22034;SDS011;11181;51.002;4.356;2023-07-31T11:30:58;9.77;;;3.73;;
22034;SDS011;11181;51.002;4.356;2023-07-31T11:33:24;5.73;;;3.40;;
22034;SDS011;11181;51.002;4.356;2023-07-31T11:35:51;5.80;;;3.43;;
22034;SDS011;11181;51.002;4.356;2023-07-31T11:38:23;6.07;;;3.10;;
22034;SDS011;11181;51.002;4.356;2023-07-31T11:40:51;5.77;;;3.03;;
22034;SDS011;11181;51.002;4.356;2023-07-31T11:43:18;8.10;;;3.87;;
22034;SDS011;11181;51.002;4.356;2023-07-31T11:45:47;6.93;;;3.87;;
22034;SDS011;11181;51.002;4.356;2023-07-31T11:48:21;7.60;;;3.83;;
22034;SDS011;11181;51.002;4.356;2023-07-31T11:50:49;8.80;;;4.23;;
22034;SDS011;11181;51.002;4.356;2023-07-31T11:53:18;6.77;;;3.70;;
22034;SDS011;11181;51.002;4.356;2023-07-31T11:55:49;5.97;;;3.77;;
22034;SDS011;11181;51.002;4.356;2023-07-31T11:58:17;7.53;;;3.47;;
22034;SDS011;11181;51.002;4.356;2023-07-31T12:00:45;7.70;;;4.00;;
22034;SDS011;11181;51.002;4.356;2023-07-31T12:03:12;6.07;;;3.93;;
22034;SDS011;11181;51.002;4.356;2023-07-31T12:05:39;9.17;;;3.87;;
22034;SDS011;11181;51.002;4.356;2023-07-31T12:08:09;8.93;;;4.67;;
22034;SDS011;11181;51.002;4.356;2023-07-31T12:10:37;8.70;;;4.30;;
22034;SDS011;11181;51.002;4.356;2023-07-31T12:13:08;9.83;;;3.90;;
22034;SDS011;11181;51.002;4.356;2023-07-31T12:15:39;8.00;;;3.33;;
22034;SDS011;11181;51.002;4.356;2023-07-31T12:18:08;8.73;;;3.80;;
22034;SDS011;11181;51.002;4.356;2023-07-31T12:20:39;8.57;;;3.80;;
22034;SDS011;11181;51.002;4.356;2023-07-31T12:23:12;4.90;;;3.10;;
22034;SDS011;11181;51.002;4.356;2023-07-31T12:25:40;8.37;;;4.13;;
22034;SDS011;11181;51.002;4.356;2023-07-31T12:28:09;4.83;;;3.27;;
22034;SDS011;11181;51.002;4.356;2023-07-31T12:30:38;10.63;;;3.80;;
22034;SDS011;11181;51.002;4.356;2023-07-31T12:33:06;7.33;;;3.97;;
22034;SDS011;11181;51.002;4.356;2023-07-31T12:35:40;7.63;;;3.30;;
22034;SDS011;11181;51.002;4.356;2023-07-31T12:38:09;6.60;;;3.27;;
22034;SDS011;11181;51.002;4.356;2023-07-31T12:40:37;9.47;;;3.70;;
22034;SDS011;11181;51.002;4.356;2023-07-31T12:43:05;5.07;;;3.70;;
22034;SDS011;11181;51.002;4.356;2023-07-31T12:45:34;5.57;;;2.97;;
22034;SDS011;11181;51.002;4.356;2023-07-31T12:48:01;9.13;;;3.67;;
22034;SDS011;11181;51.002;4.356;2023-07-31T12:50:28;7.70;;;3.60;;
22034;SDS011;11181;51.002;4.356;2023-07-31T12:52:55;5.73;;;3.40;;
22034;SDS011;11181;51.002;4.356;2023-07-31T12:55:23;6.40;;;3.70;;
22034;SDS011;11181;51.002;4.356;2023-07-31T12:57:50;9.03;;;3.80;;
22034;SDS011;11181;51.002;4.356;2023-07-31T13:00:17;6.60;;;3.87;;
22034;SDS011;11181;51.002;4.356;2023-07-31T13:02:45;6.97;;;3.53;;
22034;SDS011;11181;51.002;4.356;2023-07-31T13:05:12;10.00;;;4.03;;
22034;SDS011;11181;51.002;4.356;2023-07-31T13:07:39;5.77;;;3.20;;
22034;SDS011;11181;51.002;4.356;2023-07-31T13:10:07;5.53;;;3.03;;
22034;SDS011;11181;51.002;4.356;2023-07-31T13:12:34;4.47;;;2.97;;
22034;SDS011;11181;51.002;4.356;2023-07-31T13:15:01;6.83;;;2.97;;
22034;SDS011;11181;51.002;4.356;2023-07-31T13:17:29;8.60;;;3.13;;
22034;SDS011;11181;51.002;4.356;2023-07-31T13:19:57;4.80;;;2.90;;
22034;SDS011;11181;51.002;4.356;2023-07-31T13:22:24;5.43;;;2.93;;
22034;SDS011;11181;51.002;4.356;2023-07-31T13:24:51;4.10;;;2.57;;
22034;SDS011;11181;51.002;4.356;2023-07-31T13:27:18;6.40;;;2.43;;
22034;SDS011;11181;51.002;4.356;2023-07-31T13:29:46;2.50;;;2.00;;
22034;SDS011;11181;51.002;4.356;2023-07-31T13:32:13;2.93;;;1.97;;
22034;SDS011;11181;51.002;4.356;2023-07-31T13:34:40;5.07;;;1.80;;
22034;SDS011;11181;51.002;4.356;2023-07-31T13:37:08;7.10;;;2.40;;
22034;SDS011;11181;51.002;4.356;2023-07-31T13:39:35;3.73;;;2.23;;
22034;SDS011;11181;51.002;4.356;2023-07-31T13:42:02;5.23;;;2.30;;
22034;SDS011;11181;51.002;4.356;2023-07-31T13:44:31;2.47;;;1.67;;
22034;SDS011;11181;51.002;4.356;2023-07-31T13:46:58;3.90;;;2.27;;
22034;SDS011;11181;51.002;4.356;2023-07-31T13:49:25;4.43;;;2.30;;
22034;SDS011;11181;51.002;4.356;2023-07-31T13:51:52;3.30;;;1.90;;
22034;SDS011;11181;51.002;4.356;2023-07-31T13:54:20;3.53;;;2.10;;
22034;SDS011;11181;51.002;4.356;2023-07-31T13:56:48;3.67;;;2.00;;
22034;SDS011;11181;51.002;4.356;2023-07-31T13:59:15;6.73;;;2.23;;
22034;SDS011;11181;51.002;4.356;2023-07-31T14:01:42;4.07;;;2.00;;
22034;SDS011;11181;51.002;4.356;2023-07-31T14:04:09;2.93;;;1.83;;
22034;SDS011;11181;51.002;4.356;2023-07-31T14:06:36;3.53;;;2.13;;
22034;SDS011;11181;51.002;4.356;2023-07-31T14:09:03;2.40;;;1.97;;
22034;SDS011;11181;51.002;4.356;2023-07-31T14:11:32;2.40;;;1.70;;
22034;SDS011;11181;51.002;4.356;2023-07-31T14:13:59;4.47;;;2.20;;
22034;SDS011;11181;51.002;4.356;2023-07-31T14:16:27;4.30;;;2.70;;
22034;SDS011;11181;51.002;4.356;2023-07-31T14:18:54;3.80;;;2.37;;
22034;SDS011;11181;51.002;4.356;2023-07-31T14:21:24;3.37;;;2.40;;
22034;SDS011;11181;51.002;4.356;2023-07-31T14:23:51;5.20;;;2.70;;
22034;SDS011;11181;51.002;4.356;2023-07-31T14:26:17;5.63;;;2.33;;
22034;SDS011;11181;51.002;4.356;2023-07-31T14:28:46;6.13;;;2.83;;
22034;SDS011;11181;51.002;4.356;2023-07-31T14:31:13;5.13;;;2.47;;
22034;SDS011;11181;51.002;4.356;2023-07-31T14:33:39;4.30;;;2.70;;
22034;SDS011;11181;51.002;4.356;2023-07-31T14:36:07;3.30;;;2.60;;
22034;SDS011;11181;51.002;4.356;2023-07-31T14:38:34;7.17;;;2.30;;
22034;SDS011;11181;51.002;4.356;2023-07-31T14:41:01;4.10;;;1.90;;
22034;SDS011;11181;51.002;4.356;2023-07-31T14:43:28;4.57;;;2.40;;
22034;SDS011;11181;51.002;4.356;2023-07-31T14:45:56;3.80;;;1.73;;
22034;SDS011;11181;51.002;4.356;2023-07-31T14:48:25;3.13;;;2.00;;
22034;SDS011;11181;51.002;4.356;2023-07-31T14:50:52;4.83;;;2.50;;
22034;SDS011;11181;51.002;4.356;2023-07-31T14:53:19;4.33;;;2.10;;